createdAt,value
2019-04-09T06:17:19.276Z,97372.06
2019-04-09T06:19:54.630Z,97372.48
2019-04-09T06:22:31.424Z,97364.34
2019-04-09T06:25:06.403Z,97364.34
2019-04-09T06:27:41.362Z,97369.72
2019-04-09T06:30:16.294Z,97378.20
2019-04-09T06:33:07.998Z,97382.45
2019-04-09T06:36:03.730Z,97384.28
2019-04-09T06:38:56.311Z,97384.28
2019-04-09T06:41:42.054Z,97385.52
2019-04-09T06:49:08.873Z,97384.22
2019-04-09T06:52:02.647Z,97384.22
2019-04-09T06:54:59.004Z,97386.55
2019-04-09T06:57:54.031Z,97381.52
2019-04-09T07:00:38.941Z,97375.74
2019-04-09T07:03:45.477Z,97375.74
2019-04-09T07:06:57.634Z,97377.16
2019-04-09T07:09:48.302Z,97375.01
2019-04-09T07:12:31.528Z,97384.66
2019-04-09T07:15:41.826Z,97384.66
2019-04-09T07:18:33.405Z,97387.84
2019-04-09T07:21:38.691Z,97390.70
2019-04-09T07:24:30.528Z,97397.05
2019-04-09T07:27:12.438Z,97393.61
2019-04-09T07:30:06.941Z,97393.95
2019-04-09T07:33:01.943Z,97400.61
2019-04-09T07:35:56.945Z,97408.64
2019-04-09T07:38:48.742Z,97405.41
2019-04-09T07:41:43.348Z,97408.41
2019-04-09T07:44:37.359Z,97413.11
2019-04-09T07:47:46.302Z,97412.01
2019-04-09T07:50:41.383Z,97415.07
2019-04-09T07:53:20.289Z,97417.94
2019-04-09T07:56:17.569Z,97424.67
2019-04-09T07:59:16.709Z,97424.75
2019-04-09T08:02:06.236Z,97424.75
2019-04-09T08:05:04.699Z,97430.68
2019-04-09T08:11:56.344Z,97429.63
2019-04-09T08:14:58.913Z,97435.88
2019-04-09T08:17:51.518Z,97432.49
2019-04-09T08:21:01.209Z,97430.00
2019-04-09T08:23:41.909Z,97430.00
2019-04-09T08:26:47.285Z,97442.22
2019-04-09T08:29:42.718Z,97437.86
2019-04-09T08:32:37.115Z,97438.27
2019-04-09T08:35:41.646Z,97438.27
2019-04-09T08:38:43.501Z,97433.98
2019-04-09T08:41:42.667Z,97433.98
2019-04-09T08:44:40.387Z,97446.89
2019-04-09T08:47:40.093Z,97451.56
2019-04-09T08:50:32.307Z,97450.77
2019-04-09T08:53:18.437Z,97445.88
2019-04-09T08:56:05.979Z,97445.88
2019-04-09T08:59:15.739Z,97448.78
2019-04-09T09:03:54.859Z,97453.83
2019-04-09T09:06:29.271Z,97451.05
2019-04-09T09:09:14.087Z,97453.02
2019-04-09T09:11:54.283Z,97457.16
2019-04-09T09:14:45.606Z,97457.16
2019-04-09T09:31:24.439Z,97460.66
2019-04-09T09:34:24.966Z,97467.30
2019-04-09T09:37:19.952Z,97463.97
2019-04-09T09:40:17.637Z,97460.94
2019-04-09T09:43:03.755Z,97467.30
2019-04-09T09:46:04.823Z,97468.45
2019-04-09T09:48:44.414Z,97468.45
2019-04-09T09:51:47.085Z,97470.60
2019-04-09T09:54:35.643Z,97464.63
2019-04-09T09:57:20.489Z,97464.63
2019-04-09T10:00:14.323Z,97457.97
2019-04-09T10:03:15.126Z,97457.97
2019-04-09T10:06:17.124Z,97471.28
2019-04-09T10:09:14.411Z,97465.05
2019-04-09T10:11:56.907Z,97469.92
2019-04-09T10:14:50.166Z,97464.80
2019-04-09T10:17:43.631Z,97461.27
2019-04-09T10:20:38.332Z,97461.27
2019-04-09T10:23:33.226Z,97464.44
2019-04-09T10:26:22.364Z,97468.08
2019-04-09T10:29:15.893Z,97466.64
2019-04-09T10:32:11.099Z,97452.63
2019-04-09T10:35:06.320Z,97465.81
2019-04-09T10:38:01.048Z,97465.81
2019-04-09T10:40:53.559Z,97465.06
2019-04-09T10:43:46.033Z,97464.34
2019-04-09T10:46:42.132Z,97464.53
2019-04-09T10:49:44.369Z,97465.06
2019-04-09T10:52:57.091Z,97465.48
2019-04-09T10:55:56.421Z,97462.66
2019-04-09T10:58:51.671Z,97465.80
2019-04-09T11:01:54.429Z,97458.50
2019-04-09T11:05:39.186Z,97454.78
2019-04-09T11:08:19.679Z,97454.78
2019-04-09T11:11:13.063Z,97462.86
2019-04-09T11:14:12.590Z,97453.20
2019-04-09T11:16:58.338Z,97453.20
2019-04-09T11:24:01.091Z,97457.77
2019-04-09T11:26:58.014Z,97456.65
2019-04-09T11:29:51.730Z,97456.39
2019-04-09T11:32:40.282Z,97452.25
2019-04-09T11:35:32.494Z,97452.25
2019-04-09T11:38:25.744Z,97452.55
2019-04-09T11:41:08.162Z,97447.45
2019-04-09T11:44:09.252Z,97446.99
2019-04-09T11:47:11.900Z,97448.78
2019-04-09T11:50:11.858Z,97461.19
2019-04-09T11:52:56.406Z,97449.09
2019-04-09T11:55:53.696Z,97450.41
2019-04-09T11:58:46.804Z,97453.02
2019-04-09T12:01:40.772Z,97453.03
2019-04-09T12:04:32.461Z,97454.00
2019-04-09T12:07:44.381Z,97450.28
2019-04-09T12:10:36.537Z,97448.81
2019-04-09T12:13:28.632Z,97449.20
2019-04-09T12:16:19.494Z,97447.94
2019-04-09T12:19:12.582Z,97450.30
2019-04-09T12:25:35.713Z,97450.13
2019-04-09T12:28:37.624Z,97448.33
2019-04-09T12:31:30.294Z,97448.12
2019-04-09T12:34:17.730Z,97442.03
2019-04-09T12:37:02.124Z,97443.86
2019-04-09T12:39:56.093Z,97436.47
2019-04-09T12:42:48.341Z,97436.47
2019-04-09T12:45:41.599Z,97427.48
2019-04-09T12:48:50.749Z,97434.23
2019-04-09T12:51:59.574Z,97422.70
2019-04-09T12:57:52.687Z,97412.48
2019-04-09T13:00:48.135Z,97413.09
2019-04-09T13:03:53.544Z,97414.11
2019-04-09T13:06:49.877Z,97414.11
2019-04-09T13:09:43.145Z,97410.80
2019-04-09T13:13:00.717Z,97405.92
2019-04-09T13:15:48.693Z,97401.61
2019-04-09T13:19:29.517Z,97399.42
2019-04-09T13:22:22.266Z,97399.42
2019-04-09T13:25:17.405Z,97396.06
2019-04-09T13:28:05.969Z,97386.47
2019-04-09T13:30:59.138Z,97393.36
2019-04-09T13:34:04.316Z,97394.91
2019-04-09T13:36:55.650Z,97394.91
2019-04-09T13:39:54.519Z,97385.31
2019-04-09T13:42:49.594Z,97388.56
2019-04-09T13:45:46.398Z,97380.91
2019-04-09T13:48:42.947Z,97381.83
2019-04-09T13:51:36.102Z,97383.22
2019-04-09T13:54:10.719Z,97378.44
2019-04-09T13:56:53.655Z,97374.77
2019-04-09T13:59:38.391Z,97374.02
2019-04-09T14:02:13.277Z,97363.66
2019-04-09T14:04:55.695Z,97369.03
2019-04-09T14:07:29.849Z,97368.95
2019-04-09T14:10:03.364Z,97372.24
2019-04-09T14:12:39.893Z,97360.92
2019-04-09T14:15:16.198Z,97360.92
2019-04-09T14:17:51.314Z,97366.55
2019-04-09T14:20:27.421Z,97363.77
2019-04-09T14:23:02.289Z,97360.94
2019-04-09T14:25:38.040Z,97367.42
2019-04-09T14:28:13.348Z,97359.99
2019-04-09T14:30:48.503Z,97353.34
2019-04-09T14:33:23.431Z,97355.84
2019-04-09T14:35:58.333Z,97350.98
2019-04-09T14:38:33.268Z,97354.30
2019-04-09T14:41:08.188Z,97360.38
2019-04-09T14:43:46.481Z,97362.77
2019-04-09T14:46:20.127Z,97357.26
2019-04-09T14:48:58.296Z,97352.48
2019-04-09T14:51:33.982Z,97354.06
2019-04-09T14:54:09.823Z,97344.02
2019-04-09T14:56:45.963Z,97344.02
2019-04-09T14:59:20.649Z,97340.34
2019-04-09T15:01:57.402Z,97340.34
2019-04-09T15:04:33.021Z,97347.52
2019-04-09T15:07:07.951Z,97337.68
2019-04-09T15:09:43.496Z,97334.61
2019-04-09T15:12:18.279Z,97334.61
2019-04-09T15:14:53.192Z,97337.95
2019-04-09T15:17:27.876Z,97342.61
2019-04-09T15:20:02.604Z,97338.44
2019-04-09T15:22:42.988Z,97349.41
2019-04-09T15:25:17.730Z,97343.54
2019-04-09T15:27:52.746Z,97345.86
2019-04-09T15:30:37.587Z,97331.86
2019-04-09T15:33:24.478Z,97336.55
2019-04-09T15:35:48.674Z,97337.86
2019-04-09T15:38:22.997Z,97337.86
2019-04-09T15:40:58.359Z,97344.41
2019-04-09T15:43:33.288Z,97341.14
2019-04-09T15:46:09.291Z,97340.81
2019-04-09T15:48:44.793Z,97337.43
2019-04-09T15:51:19.390Z,97334.59
2019-04-09T15:53:54.848Z,97334.13
2019-04-09T15:56:30.719Z,97343.16
2019-04-09T15:59:11.170Z,97337.33
2019-04-09T16:02:05.882Z,97337.33
2019-04-09T16:04:50.518Z,97337.16
2019-04-09T16:07:26.242Z,97334.77
2019-04-09T16:10:02.402Z,97337.67
2019-04-09T16:12:38.407Z,97331.31
2019-04-09T16:15:13.364Z,97323.78
2019-04-09T16:17:48.193Z,97323.78
2019-04-09T16:20:22.789Z,97327.11
2019-04-09T16:22:57.286Z,97327.11
2019-04-09T16:25:49.131Z,97337.78
2019-04-09T16:28:17.273Z,97334.16
2019-04-09T16:31:16.564Z,97332.84
2019-04-09T16:38:00.421Z,97345.10
2019-04-09T16:40:41.358Z,97345.38
2019-04-09T16:43:47.136Z,97343.50
2019-04-09T16:46:37.429Z,97338.07
2019-04-09T16:49:37.893Z,97343.59
2019-04-09T16:52:13.042Z,97342.84
2019-04-09T16:55:00.359Z,97346.77
2019-04-09T16:58:02.599Z,97354.41
2019-04-09T17:00:36.910Z,97347.98
2019-04-09T17:03:15.873Z,97353.81
2019-04-09T17:05:54.141Z,97366.12
2019-04-09T17:08:35.713Z,97362.20
2019-04-09T17:11:34.598Z,97363.73
2019-04-09T17:14:28.182Z,97363.73
2019-04-09T17:17:06.539Z,97360.23
2019-04-09T17:19:49.288Z,97360.23
2019-04-09T17:22:24.365Z,97365.56
2019-04-09T17:25:46.073Z,97370.70
2019-04-09T17:28:25.661Z,97371.93
2019-04-09T17:30:59.115Z,97375.80
2019-04-09T17:33:33.714Z,97375.45
2019-04-09T17:36:07.286Z,97375.45
2019-04-09T17:38:44.284Z,97380.72
2019-04-09T17:41:32.679Z,97387.92
2019-04-09T17:44:06.132Z,97387.92
2019-04-09T17:46:54.978Z,97388.88
2019-04-09T17:49:31.224Z,97388.88
2019-04-09T17:52:06.419Z,97393.86
2019-04-09T17:54:42.291Z,97393.06
2019-04-09T17:57:18.281Z,97395.03
2019-04-09T18:00:33.201Z,97399.83
2019-04-09T18:03:09.085Z,97399.83
2019-04-09T18:05:48.439Z,97405.86
2019-04-09T18:08:36.785Z,97411.75
2019-04-09T18:11:18.622Z,97410.88
2019-04-09T18:17:27.054Z,97416.58
2019-04-09T18:20:05.551Z,97419.98
2019-04-09T18:22:53.866Z,97422.90
2019-04-09T18:25:32.335Z,97422.61
2019-04-09T18:28:25.076Z,97425.14
2019-04-09T18:31:20.291Z,97432.22
2019-04-09T18:33:50.381Z,97427.48
2019-04-09T18:36:34.679Z,97430.63
2019-04-09T18:39:19.105Z,97433.80
2019-04-09T18:42:03.970Z,97442.50
2019-04-09T18:44:47.424Z,97439.44
2019-04-09T18:47:18.024Z,97427.04
2019-04-09T18:49:55.982Z,97433.47
2019-04-09T18:52:33.493Z,97433.47
2019-04-09T18:55:16.029Z,97438.91
2019-04-09T18:58:02.802Z,97445.95
2019-04-09T19:01:22.713Z,97437.45
2019-04-09T19:04:14.155Z,97437.45
2019-04-09T19:06:56.301Z,97449.86
2019-04-09T19:09:32.388Z,97446.59
2019-04-09T19:12:14.605Z,97447.84
2019-04-09T19:14:52.170Z,97451.81
2019-04-09T19:17:29.355Z,97444.39
2019-04-09T19:20:07.918Z,97453.27
2019-04-09T19:22:47.252Z,97454.34
2019-04-09T19:25:36.004Z,97446.97
2019-04-09T19:31:43.123Z,97452.23
2019-04-09T19:34:37.599Z,97445.81
2019-04-09T19:37:11.113Z,97442.13
2019-04-09T19:40:05.923Z,97450.23
2019-04-09T19:42:57.943Z,97455.09
2019-04-09T19:45:46.315Z,97459.18
2019-04-09T19:48:30.447Z,97456.82
2019-04-09T19:51:09.096Z,97456.82
2019-04-09T19:54:06.657Z,97467.80
2019-04-09T19:56:44.714Z,97462.80
2019-04-09T19:59:38.496Z,97464.41
2019-04-09T20:02:27.283Z,97463.28
2019-04-09T20:05:07.840Z,97463.97
2019-04-09T20:07:54.571Z,97465.75
2019-04-09T20:10:50.943Z,97468.22
2019-04-09T20:15:28.358Z,97469.61
2019-04-09T20:18:34.088Z,97470.33
2019-04-09T20:21:35.224Z,97482.36
2019-04-09T20:24:59.446Z,97482.36
2019-04-09T20:27:35.259Z,97484.18
2019-04-09T20:30:30.060Z,97483.15
2019-04-09T20:36:51.354Z,97492.89
2019-04-09T20:40:00.363Z,97492.41
2019-04-09T20:42:47.086Z,97494.27
2019-04-09T20:45:26.728Z,97494.73
2019-04-09T20:48:01.308Z,97499.70
2019-04-09T20:50:38.980Z,97494.69
2019-04-09T20:53:19.992Z,97498.34
2019-04-09T20:56:08.844Z,97496.91
2019-04-09T20:59:44.755Z,97496.45
2019-04-09T21:03:27.131Z,97490.36
2019-04-09T21:06:16.492Z,97495.38
2019-04-09T21:08:55.809Z,97497.12
2019-04-09T21:11:38.946Z,97494.45
2019-04-09T21:14:54.099Z,97494.45
2019-04-09T21:17:32.296Z,97498.78
2019-04-09T21:20:09.559Z,97504.16
2019-04-09T21:22:45.390Z,97504.16
2019-04-09T21:25:20.544Z,97502.16
2019-04-09T21:27:59.156Z,97502.66
2019-04-09T21:30:33.968Z,97501.16
2019-04-09T21:33:11.011Z,97502.66
2019-04-09T21:36:04.240Z,97502.66
2019-04-09T21:38:42.448Z,97509.41
2019-04-09T21:41:17.141Z,97512.20
2019-04-09T21:43:53.430Z,97510.83
2019-04-09T21:46:30.786Z,97508.83
2019-04-09T21:49:13.749Z,97513.47
2019-04-09T21:51:48.104Z,97509.05
2019-04-09T21:54:23.575Z,97506.44
2019-04-09T21:56:58.856Z,97509.07
2019-04-09T21:59:37.319Z,97507.72
2019-04-09T22:02:12.298Z,97507.72
2019-04-09T22:04:47.749Z,97506.19
2019-04-09T22:07:25.147Z,97513.91
2019-04-09T22:09:57.319Z,97513.91
2019-04-09T22:12:32.118Z,97519.66
2019-04-09T22:15:16.459Z,97519.66
2019-04-09T22:17:56.321Z,97516.29
2019-04-09T22:21:01.565Z,97518.14
2019-04-09T22:28:24.370Z,97521.08
2019-04-09T22:30:59.490Z,97520.02
2019-04-09T22:33:39.030Z,97521.72
2019-04-09T22:36:13.985Z,97521.72
2019-04-09T22:38:56.405Z,97520.81
2019-04-09T22:41:37.450Z,97520.81
2019-04-09T22:44:12.304Z,97525.58
2019-04-09T22:46:56.957Z,97521.58
2019-04-09T22:49:37.483Z,97518.83
2019-04-09T22:52:12.330Z,97518.83
2019-04-09T22:54:55.865Z,97517.91
2019-04-09T22:57:42.066Z,97516.70
2019-04-09T23:00:49.262Z,97516.70
2019-04-09T23:03:44.881Z,97518.84
2019-04-09T23:06:48.378Z,97518.40
2019-04-09T23:09:47.567Z,97516.69
2019-04-09T23:12:34.864Z,97516.69
2019-04-09T23:15:19.375Z,97518.20
2019-04-09T23:17:57.288Z,97512.09
2019-04-09T23:20:34.657Z,97512.09
2019-04-09T23:23:23.311Z,97520.04
2019-04-09T23:25:59.352Z,97522.34
2019-04-09T23:28:35.081Z,97519.88
2019-04-09T23:31:10.508Z,97520.66
2019-04-09T23:33:49.462Z,97517.10
2019-04-09T23:36:23.713Z,97519.86
2019-04-09T23:38:58.294Z,97521.71
2019-04-09T23:41:34.465Z,97521.08
2019-04-09T23:44:10.288Z,97523.22
2019-04-09T23:46:47.775Z,97519.09
2019-04-09T23:49:23.136Z,97517.26
2019-04-09T23:51:58.301Z,97519.38
2019-04-09T23:54:38.951Z,97518.76
2019-04-09T23:57:16.917Z,97516.61
2019-04-09T23:59:56.718Z,97520.91
